sensor_id;sensor_type;location;lat;lon;timestamp;temperature;humidity
4406;DHT22;2216;53.806;11.598;2022-10-22T00:00:09;14.20;72.60
4406;DHT22;2216;53.806;11.598;2022-10-22T00:02:37;14.20;73.30
4406;DHT22;2216;53.806;11.598;2022-10-22T00:05:03;14.20;72.60
4406;DHT22;2216;53.806;11.598;2022-10-22T00:07:29;14.20;72.60
4406;DHT22;2216;53.806;11.598;2022-10-22T00:09:55;14.20;72.60
4406;DHT22;2216;53.806;11.598;2022-10-22T00:12:21;14.20;72.60
4406;DHT22;2216;53.806;11.598;2022-10-22T00:14:47;14.20;72.60
4406;DHT22;2216;53.806;11.598;2022-10-22T00:17:13;14.20;72.60
4406;DHT22;2216;53.806;11.598;2022-10-22T00:19:39;14.20;72.60
4406;DHT22;2216;53.806;11.598;2022-10-22T00:22:05;14.20;72.60
4406;DHT22;2216;53.806;11.598;2022-10-22T00:24:32;14.20;72.70
4406;DHT22;2216;53.806;11.598;2022-10-22T00:26:59;14.20;72.60
4406;DHT22;2216;53.806;11.598;2022-10-22T00:29:25;14.20;72.70
4406;DHT22;2216;53.806;11.598;2022-10-22T00:31:50;14.20;72.70
4406;DHT22;2216;53.806;11.598;2022-10-22T00:34:18;14.20;72.70
4406;DHT22;2216;53.806;11.598;2022-10-22T00:36:46;14.30;72.70
4406;DHT22;2216;53.806;11.598;2022-10-22T00:39:14;14.30;72.70
4406;DHT22;2216;53.806;11.598;2022-10-22T00:41:42;14.20;72.70
4406;DHT22;2216;53.806;11.598;2022-10-22T00:50:42;14.30;72.80
4406;DHT22;2216;53.806;11.598;2022-10-22T00:53:20;14.30;72.80
4406;DHT22;2216;53.806;11.598;2022-10-22T00:55:51;14.30;72.90
4406;DHT22;2216;53.806;11.598;2022-10-22T00:58:18;14.30;72.90
4406;DHT22;2216;53.806;11.598;2022-10-22T01:00:45;14.30;72.90
4406;DHT22;2216;53.806;11.598;2022-10-22T01:03:12;14.30;73.00
4406;DHT22;2216;53.806;11.598;2022-10-22T01:05:54;14.30;72.90
4406;DHT22;2216;53.806;11.598;2022-10-22T01:11:58;14.30;72.90
4406;DHT22;2216;53.806;11.598;2022-10-22T01:17:23;14.30;73.00
4406;DHT22;2216;53.806;11.598;2022-10-22T01:29:12;14.40;73.00
4406;DHT22;2216;53.806;11.598;2022-10-22T01:31:53;14.40;73.00
4406;DHT22;2216;53.806;11.598;2022-10-22T01:34:24;14.40;73.00
4406;DHT22;2216;53.806;11.598;2022-10-22T01:36:52;14.40;73.00
4406;DHT22;2216;53.806;11.598;2022-10-22T01:39:19;14.40;72.90
4406;DHT22;2216;53.806;11.598;2022-10-22T01:41:45;14.40;72.90
4406;DHT22;2216;53.806;11.598;2022-10-22T01:44:29;14.40;72.90
4406;DHT22;2216;53.806;11.598;2022-10-22T01:48:09;14.40;73.70
4406;DHT22;2216;53.806;11.598;2022-10-22T01:53:21;14.40;72.90
4406;DHT22;2216;53.806;11.598;2022-10-22T01:56:13;14.40;73.00
4406;DHT22;2216;53.806;11.598;2022-10-22T01:58:44;14.40;73.00
4406;DHT22;2216;53.806;11.598;2022-10-22T02:01:40;14.40;73.00
4406;DHT22;2216;53.806;11.598;2022-10-22T02:04:40;14.40;73.10
4406;DHT22;2216;53.806;11.598;2022-10-22T02:07:11;14.40;73.10
4406;DHT22;2216;53.806;11.598;2022-10-22T02:09:40;14.50;73.10
4406;DHT22;2216;53.806;11.598;2022-10-22T02:12:08;14.40;73.10
4406;DHT22;2216;53.806;11.598;2022-10-22T02:14:37;14.50;73.20
4406;DHT22;2216;53.806;11.598;2022-10-22T02:17:07;14.40;73.20
4406;DHT22;2216;53.806;11.598;2022-10-22T02:19:43;14.40;73.20
4406;DHT22;2216;53.806;11.598;2022-10-22T02:22:11;14.50;73.30
4406;DHT22;2216;53.806;11.598;2022-10-22T02:24:37;14.50;73.20
4406;DHT22;2216;53.806;11.598;2022-10-22T02:27:20;14.50;73.20
4406;DHT22;2216;53.806;11.598;2022-10-22T02:30:05;14.40;73.20
4406;DHT22;2216;53.806;11.598;2022-10-22T02:32:41;14.50;73.30
4406;DHT22;2216;53.806;11.598;2022-10-22T02:35:18;14.50;73.20
4406;DHT22;2216;53.806;11.598;2022-10-22T02:37:46;14.50;73.30
4406;DHT22;2216;53.806;11.598;2022-10-22T02:40:12;14.50;73.20
4406;DHT22;2216;53.806;11.598;2022-10-22T02:42:38;14.50;73.20
4406;DHT22;2216;53.806;11.598;2022-10-22T02:45:05;14.50;73.20
4406;DHT22;2216;53.806;11.598;2022-10-22T02:47:31;14.50;73.90
4406;DHT22;2216;53.806;11.598;2022-10-22T02:49:57;14.50;73.20
4406;DHT22;2216;53.806;11.598;2022-10-22T02:52:23;14.50;73.20
4406;DHT22;2216;53.806;11.598;2022-10-22T02:54:48;14.50;73.20
4406;DHT22;2216;53.806;11.598;2022-10-22T02:57:14;14.60;73.20
4406;DHT22;2216;53.806;11.598;2022-10-22T02:59:40;14.60;73.20
4406;DHT22;2216;53.806;11.598;2022-10-22T03:02:05;14.60;73.20
4406;DHT22;2216;53.806;11.598;2022-10-22T03:04:31;14.60;73.20
4406;DHT22;2216;53.806;11.598;2022-10-22T03:06:57;14.60;73.20
4406;DHT22;2216;53.806;11.598;2022-10-22T03:09:22;14.60;73.20
4406;DHT22;2216;53.806;11.598;2022-10-22T03:11:48;14.60;73.20
4406;DHT22;2216;53.806;11.598;2022-10-22T03:14:14;14.60;73.20
4406;DHT22;2216;53.806;11.598;2022-10-22T03:16:39;14.60;73.20
4406;DHT22;2216;53.806;11.598;2022-10-22T03:19:05;14.60;73.20
4406;DHT22;2216;53.806;11.598;2022-10-22T03:21:39;14.60;73.20
4406;DHT22;2216;53.806;11.598;2022-10-22T03:24:20;14.60;73.30
4406;DHT22;2216;53.806;11.598;2022-10-22T03:26:49;14.60;73.20
4406;DHT22;2216;53.806;11.598;2022-10-22T03:29:16;14.70;73.30
4406;DHT22;2216;53.806;11.598;2022-10-22T03:31:42;14.60;73.20
4406;DHT22;2216;53.806;11.598;2022-10-22T03:34:08;14.60;73.20
4406;DHT22;2216;53.806;11.598;2022-10-22T03:36:36;14.70;73.30
4406;DHT22;2216;53.806;11.598;2022-10-22T03:39:04;14.60;73.30
4406;DHT22;2216;53.806;11.598;2022-10-22T03:41:30;14.70;73.30
4406;DHT22;2216;53.806;11.598;2022-10-22T03:43:56;14.70;73.30
4406;DHT22;2216;53.806;11.598;2022-10-22T03:46:22;14.70;73.30
4406;DHT22;2216;53.806;11.598;2022-10-22T03:48:48;14.70;73.30
4406;DHT22;2216;53.806;11.598;2022-10-22T03:51:13;14.70;73.30
4406;DHT22;2216;53.806;11.598;2022-10-22T03:53:39;14.70;73.30
4406;DHT22;2216;53.806;11.598;2022-10-22T03:56:09;14.70;73.30
4406;DHT22;2216;53.806;11.598;2022-10-22T03:58:37;14.70;73.30
4406;DHT22;2216;53.806;11.598;2022-10-22T04:01:09;14.70;73.30
4406;DHT22;2216;53.806;11.598;2022-10-22T04:03:36;14.70;73.30
4406;DHT22;2216;53.806;11.598;2022-10-22T04:06:06;14.70;73.20
4406;DHT22;2216;53.806;11.598;2022-10-22T04:08:34;14.70;73.30
4406;DHT22;2216;53.806;11.598;2022-10-22T04:10:59;14.70;73.20
4406;DHT22;2216;53.806;11.598;2022-10-22T04:13:25;14.70;73.20
4406;DHT22;2216;53.806;11.598;2022-10-22T04:15:51;14.70;73.30
4406;DHT22;2216;53.806;11.598;2022-10-22T04:18:22;14.70;73.20
4406;DHT22;2216;53.806;11.598;2022-10-22T04:20:50;14.70;73.20
4406;DHT22;2216;53.806;11.598;2022-10-22T04:23:16;14.70;73.20
4406;DHT22;2216;53.806;11.598;2022-10-22T04:25:42;14.70;73.20
4406;DHT22;2216;53.806;11.598;2022-10-22T04:28:08;14.70;73.20
4406;DHT22;2216;53.806;11.598;2022-10-22T04:30:35;14.70;73.30
4406;DHT22;2216;53.806;11.598;2022-10-22T04:33:01;14.70;73.30
4406;DHT22;2216;53.806;11.598;2022-10-22T04:35:27;14.70;73.20
4406;DHT22;2216;53.806;11.598;2022-10-22T04:37:53;14.70;73.20
4406;DHT22;2216;53.806;11.598;2022-10-22T04:40:20;14.70;73.20
4406;DHT22;2216;53.806;11.598;2022-10-22T04:42:45;14.70;74.00
4406;DHT22;2216;53.806;11.598;2022-10-22T04:45:11;14.70;73.30
4406;DHT22;2216;53.806;11.598;2022-10-22T04:47:37;14.70;73.30
4406;DHT22;2216;53.806;11.598;2022-10-22T04:50:03;14.70;73.20
4406;DHT22;2216;53.806;11.598;2022-10-22T04:52:30;14.70;73.20
4406;DHT22;2216;53.806;11.598;2022-10-22T04:54:55;14.70;73.20
4406;DHT22;2216;53.806;11.598;2022-10-22T04:57:21;14.70;73.20
4406;DHT22;2216;53.806;11.598;2022-10-22T04:59:47;14.70;73.30
4406;DHT22;2216;53.806;11.598;2022-10-22T05:02:13;14.70;73.20
4406;DHT22;2216;53.806;11.598;2022-10-22T05:04:38;14.70;73.20
4406;DHT22;2216;53.806;11.598;2022-10-22T05:07:04;14.70;73.20
4406;DHT22;2216;53.806;11.598;2022-10-22T05:09:30;14.70;73.20
4406;DHT22;2216;53.806;11.598;2022-10-22T05:11:55;14.70;73.20
4406;DHT22;2216;53.806;11.598;2022-10-22T05:14:23;14.70;73.10
4406;DHT22;2216;53.806;11.598;2022-10-22T05:16:50;14.60;73.10
4406;DHT22;2216;53.806;11.598;2022-10-22T05:19:22;14.70;73.90
4406;DHT22;2216;53.806;11.598;2022-10-22T05:21:50;14.60;73.10
4406;DHT22;2216;53.806;11.598;2022-10-22T05:24:21;14.60;73.00
4406;DHT22;2216;53.806;11.598;2022-10-22T05:26:51;14.60;73.80
4406;DHT22;2216;53.806;11.598;2022-10-22T05:29:18;14.50;72.90
4406;DHT22;2216;53.806;11.598;2022-10-22T05:31:44;14.50;72.90
4406;DHT22;2216;53.806;11.598;2022-10-22T05:34:10;14.50;72.90
4406;DHT22;2216;53.806;11.598;2022-10-22T05:36:36;14.40;72.80
4406;DHT22;2216;53.806;11.598;2022-10-22T05:39:02;14.40;72.80
4406;DHT22;2216;53.806;11.598;2022-10-22T05:41:29;14.30;72.80
4406;DHT22;2216;53.806;11.598;2022-10-22T05:43:56;14.30;72.80
4406;DHT22;2216;53.806;11.598;2022-10-22T05:46:24;14.30;72.80
4406;DHT22;2216;53.806;11.598;2022-10-22T05:48:57;14.20;72.70
4406;DHT22;2216;53.806;11.598;2022-10-22T05:51:28;14.10;72.70
4406;DHT22;2216;53.806;11.598;2022-10-22T05:53:58;14.10;72.80
4406;DHT22;2216;53.806;11.598;2022-10-22T05:56:26;14.00;72.90
4406;DHT22;2216;53.806;11.598;2022-10-22T05:58:53;14.00;72.90
4406;DHT22;2216;53.806;11.598;2022-10-22T06:01:27;14.00;73.00
4406;DHT22;2216;53.806;11.598;2022-10-22T06:03:55;14.00;73.10
4406;DHT22;2216;53.806;11.598;2022-10-22T06:11:45;14.00;73.40
4406;DHT22;2216;53.806;11.598;2022-10-22T06:14:11;14.00;73.40
4406;DHT22;2216;53.806;11.598;2022-10-22T06:16:37;14.00;73.50
4406;DHT22;2216;53.806;11.598;2022-10-22T06:19:03;14.00;73.50
4406;DHT22;2216;53.806;11.598;2022-10-22T06:21:30;14.00;73.50
4406;DHT22;2216;53.806;11.598;2022-10-22T06:23:57;14.00;73.50
4406;DHT22;2216;53.806;11.598;2022-10-22T06:26:24;14.00;73.60
4406;DHT22;2216;53.806;11.598;2022-10-22T06:28:50;14.00;73.60
4406;DHT22;2216;53.806;11.598;2022-10-22T06:31:16;14.00;73.60
4406;DHT22;2216;53.806;11.598;2022-10-22T06:33:41;14.10;73.70
4406;DHT22;2216;53.806;11.598;2022-10-22T06:36:16;14.10;73.70
4406;DHT22;2216;53.806;11.598;2022-10-22T06:38:44;14.10;73.70
4406;DHT22;2216;53.806;11.598;2022-10-22T06:41:12;14.10;73.70
4406;DHT22;2216;53.806;11.598;2022-10-22T06:43:39;14.20;73.80
4406;DHT22;2216;53.806;11.598;2022-10-22T06:46:08;14.20;73.70
4406;DHT22;2216;53.806;11.598;2022-10-22T06:48:34;14.20;73.70
4406;DHT22;2216;53.806;11.598;2022-10-22T06:51:07;14.20;73.80
4406;DHT22;2216;53.806;11.598;2022-10-22T06:53:38;14.20;73.80
4406;DHT22;2216;53.806;11.598;2022-10-22T06:56:13;14.30;73.80
4406;DHT22;2216;53.806;11.598;2022-10-22T06:58:40;14.30;73.90
4406;DHT22;2216;53.806;11.598;2022-10-22T07:03:34;14.30;73.80
4406;DHT22;2216;53.806;11.598;2022-10-22T07:06:01;14.40;73.90
4406;DHT22;2216;53.806;11.598;2022-10-22T07:08:28;14.40;74.00
4406;DHT22;2216;53.806;11.598;2022-10-22T07:10:54;14.40;73.90
4406;DHT22;2216;53.806;11.598;2022-10-22T07:13:20;14.40;74.00
4406;DHT22;2216;53.806;11.598;2022-10-22T07:15:51;14.40;74.00
4406;DHT22;2216;53.806;11.598;2022-10-22T07:18:19;14.50;74.80
4406;DHT22;2216;53.806;11.598;2022-10-22T07:20:46;14.50;74.00
4406;DHT22;2216;53.806;11.598;2022-10-22T07:23:12;14.50;74.00
4406;DHT22;2216;53.806;11.598;2022-10-22T07:25:38;14.60;74.00
4406;DHT22;2216;53.806;11.598;2022-10-22T07:28:04;14.60;74.00
4406;DHT22;2216;53.806;11.598;2022-10-22T07:30:29;14.60;74.00
4406;DHT22;2216;53.806;11.598;2022-10-22T07:32:55;14.70;74.00
4406;DHT22;2216;53.806;11.598;2022-10-22T07:35:21;14.70;74.00
4406;DHT22;2216;53.806;11.598;2022-10-22T07:37:46;14.70;74.00
4406;DHT22;2216;53.806;11.598;2022-10-22T07:40:12;14.70;74.00
4406;DHT22;2216;53.806;11.598;2022-10-22T07:42:38;14.70;74.00
4406;DHT22;2216;53.806;11.598;2022-10-22T07:45:03;14.80;74.10
4406;DHT22;2216;53.806;11.598;2022-10-22T07:47:29;14.80;74.10
4406;DHT22;2216;53.806;11.598;2022-10-22T07:49:55;14.80;74.10
4406;DHT22;2216;53.806;11.598;2022-10-22T07:52:21;14.80;74.80
4406;DHT22;2216;53.806;11.598;2022-10-22T07:54:46;14.90;74.20
4406;DHT22;2216;53.806;11.598;2022-10-22T07:57:12;14.90;74.10
4406;DHT22;2216;53.806;11.598;2022-10-22T07:59:38;14.90;74.10
4406;DHT22;2216;53.806;11.598;2022-10-22T08:02:03;15.00;74.10
4406;DHT22;2216;53.806;11.598;2022-10-22T08:04:29;15.00;74.80
4406;DHT22;2216;53.806;11.598;2022-10-22T08:06:54;15.00;74.20
4406;DHT22;2216;53.806;11.598;2022-10-22T08:09:20;15.10;74.20
4406;DHT22;2216;53.806;11.598;2022-10-22T08:11:46;15.10;74.30
4406;DHT22;2216;53.806;11.598;2022-10-22T08:14:11;15.10;74.20
4406;DHT22;2216;53.806;11.598;2022-10-22T08:16:37;15.10;74.20
4406;DHT22;2216;53.806;11.598;2022-10-22T08:19:03;15.10;74.10
4406;DHT22;2216;53.806;11.598;2022-10-22T08:21:28;15.10;74.10
4406;DHT22;2216;53.806;11.598;2022-10-22T08:23:54;15.10;74.10
4406;DHT22;2216;53.806;11.598;2022-10-22T08:26:20;15.10;74.10
4406;DHT22;2216;53.806;11.598;2022-10-22T08:28:45;15.20;74.10
4406;DHT22;2216;53.806;11.598;2022-10-22T08:31:11;15.10;74.10
4406;DHT22;2216;53.806;11.598;2022-10-22T08:33:37;15.10;74.10
4406;DHT22;2216;53.806;11.598;2022-10-22T08:36:04;15.20;74.10
4406;DHT22;2216;53.806;11.598;2022-10-22T08:38:30;15.20;74.10
4406;DHT22;2216;53.806;11.598;2022-10-22T08:41:05;15.20;74.20
4406;DHT22;2216;53.806;11.598;2022-10-22T08:50:23;15.30;74.30
4406;DHT22;2216;53.806;11.598;2022-10-22T08:52:56;15.30;74.30
4406;DHT22;2216;53.806;11.598;2022-10-22T08:55:24;15.30;74.30
4406;DHT22;2216;53.806;11.598;2022-10-22T09:01:00;15.30;74.40
4406;DHT22;2216;53.806;11.598;2022-10-22T09:03:37;15.40;74.50
4406;DHT22;2216;53.806;11.598;2022-10-22T09:06:15;15.40;74.50
4406;DHT22;2216;53.806;11.598;2022-10-22T09:08:44;15.50;74.60
4406;DHT22;2216;53.806;11.598;2022-10-22T09:13:38;15.60;74.60
4406;DHT22;2216;53.806;11.598;2022-10-22T09:16:17;15.60;74.70
4406;DHT22;2216;53.806;11.598;2022-10-22T09:21:49;15.70;74.80
4406;DHT22;2216;53.806;11.598;2022-10-22T09:24:37;15.80;74.80
4406;DHT22;2216;53.806;11.598;2022-10-22T09:27:14;15.80;74.70
4406;DHT22;2216;53.806;11.598;2022-10-22T09:29:46;15.90;74.80
4406;DHT22;2216;53.806;11.598;2022-10-22T09:32:13;15.90;74.80
4406;DHT22;2216;53.806;11.598;2022-10-22T09:34:49;16.00;74.90
4406;DHT22;2216;53.806;11.598;2022-10-22T09:37:17;16.10;75.00
4406;DHT22;2216;53.806;11.598;2022-10-22T09:39:50;16.20;75.10
4406;DHT22;2216;53.806;11.598;2022-10-22T09:42:18;16.30;75.20
4406;DHT22;2216;53.806;11.598;2022-10-22T09:44:52;16.30;75.30
4406;DHT22;2216;53.806;11.598;2022-10-22T09:50:28;16.60;75.50
4406;DHT22;2216;53.806;11.598;2022-10-22T09:53:21;16.70;75.60
4406;DHT22;2216;53.806;11.598;2022-10-22T09:55:52;16.90;75.50
4406;DHT22;2216;53.806;11.598;2022-10-22T09:58:22;16.90;75.20
4406;DHT22;2216;53.806;11.598;2022-10-22T10:00:55;17.00;75.00
4406;DHT22;2216;53.806;11.598;2022-10-22T10:03:25;17.10;75.10
4406;DHT22;2216;53.806;11.598;2022-10-22T10:05:54;17.10;75.10
4406;DHT22;2216;53.806;11.598;2022-10-22T10:08:22;17.20;75.30
4406;DHT22;2216;53.806;11.598;2022-10-22T10:11:10;17.20;75.30
4406;DHT22;2216;53.806;11.598;2022-10-22T10:17:05;17.30;75.00
4406;DHT22;2216;53.806;11.598;2022-10-22T10:25:19;17.50;74.90
4406;DHT22;2216;53.806;11.598;2022-10-22T10:30:31;17.60;74.70
4406;DHT22;2216;53.806;11.598;2022-10-22T10:35:53;17.70;74.90
4406;DHT22;2216;53.806;11.598;2022-10-22T10:38:56;17.70;74.80
4406;DHT22;2216;53.806;11.598;2022-10-22T10:41:47;17.80;74.80
4406;DHT22;2216;53.806;11.598;2022-10-22T10:50:04;18.00;74.70
4406;DHT22;2216;53.806;11.598;2022-10-22T10:53:03;18.00;74.60
4406;DHT22;2216;53.806;11.598;2022-10-22T11:07:30;18.20;74.80
4406;DHT22;2216;53.806;11.598;2022-10-22T11:16:18;18.50;75.00
4406;DHT22;2216;53.806;11.598;2022-10-22T11:21:40;18.70;75.10
4406;DHT22;2216;53.806;11.598;2022-10-22T11:24:52;18.80;75.00
4406;DHT22;2216;53.806;11.598;2022-10-22T11:27:47;18.90;75.10
4406;DHT22;2216;53.806;11.598;2022-10-22T11:30:16;19.00;75.20
4406;DHT22;2216;53.806;11.598;2022-10-22T11:32:46;19.10;75.00
4406;DHT22;2216;53.806;11.598;2022-10-22T11:35:19;19.20;74.90
4406;DHT22;2216;53.806;11.598;2022-10-22T11:37:47;19.40;75.10
4406;DHT22;2216;53.806;11.598;2022-10-22T11:40:20;19.50;75.20
4406;DHT22;2216;53.806;11.598;2022-10-22T11:42:49;19.60;75.10
4406;DHT22;2216;53.806;11.598;2022-10-22T11:47:56;19.80;75.10
4406;DHT22;2216;53.806;11.598;2022-10-22T11:53:17;20.00;74.80
4406;DHT22;2216;53.806;11.598;2022-10-22T11:55:49;20.10;74.70
4406;DHT22;2216;53.806;11.598;2022-10-22T11:58:42;20.20;74.70
4406;DHT22;2216;53.806;11.598;2022-10-22T12:03:39;20.40;74.50
4406;DHT22;2216;53.806;11.598;2022-10-22T12:14:22;20.60;74.40
4406;DHT22;2216;53.806;11.598;2022-10-22T12:19:41;20.80;74.40
4406;DHT22;2216;53.806;11.598;2022-10-22T12:22:34;20.90;74.40
4406;DHT22;2216;53.806;11.598;2022-10-22T12:25:16;20.90;74.30
4406;DHT22;2216;53.806;11.598;2022-10-22T12:27:50;21.00;74.30
4406;DHT22;2216;53.806;11.598;2022-10-22T12:30:20;21.10;74.30
4406;DHT22;2216;53.806;11.598;2022-10-22T12:32:55;21.20;74.30
4406;DHT22;2216;53.806;11.598;2022-10-22T12:35:26;21.30;74.20
4406;DHT22;2216;53.806;11.598;2022-10-22T12:37:56;21.30;74.00
4406;DHT22;2216;53.806;11.598;2022-10-22T12:40:25;21.40;74.00
4406;DHT22;2216;53.806;11.598;2022-10-22T12:43:00;21.40;73.90
4406;DHT22;2216;53.806;11.598;2022-10-22T12:45:31;21.50;73.80
4406;DHT22;2216;53.806;11.598;2022-10-22T12:48:03;21.50;73.80
4406;DHT22;2216;53.806;11.598;2022-10-22T12:50:39;21.50;73.80
4406;DHT22;2216;53.806;11.598;2022-10-22T12:53:16;21.50;73.80
4406;DHT22;2216;53.806;11.598;2022-10-22T12:55:46;21.60;73.70
4406;DHT22;2216;53.806;11.598;2022-10-22T12:58:18;21.60;73.60
4406;DHT22;2216;53.806;11.598;2022-10-22T13:00:46;21.60;73.50
4406;DHT22;2216;53.806;11.598;2022-10-22T13:03:28;21.60;73.40
4406;DHT22;2216;53.806;11.598;2022-10-22T13:08:44;21.60;73.20
4406;DHT22;2216;53.806;11.598;2022-10-22T13:11:10;21.60;73.10
4406;DHT22;2216;53.806;11.598;2022-10-22T13:13:40;21.60;73.00
4406;DHT22;2216;53.806;11.598;2022-10-22T13:16:24;21.50;72.80
4406;DHT22;2216;53.806;11.598;2022-10-22T13:18:52;21.40;72.50
4406;DHT22;2216;53.806;11.598;2022-10-22T13:24:03;21.20;72.30
4406;DHT22;2216;53.806;11.598;2022-10-22T13:26:52;21.10;72.30
4406;DHT22;2216;53.806;11.598;2022-10-22T13:29:20;21.00;72.20
4406;DHT22;2216;53.806;11.598;2022-10-22T13:31:48;21.00;72.20
4406;DHT22;2216;53.806;11.598;2022-10-22T13:34:18;20.90;72.30
4406;DHT22;2216;53.806;11.598;2022-10-22T13:36:45;20.80;72.30
4406;DHT22;2216;53.806;11.598;2022-10-22T13:39:23;20.70;72.30
4406;DHT22;2216;53.806;11.598;2022-10-22T13:41:50;20.70;72.40
4406;DHT22;2216;53.806;11.598;2022-10-22T13:44:16;20.70;72.50
4406;DHT22;2216;53.806;11.598;2022-10-22T13:46:43;20.60;72.50
4406;DHT22;2216;53.806;11.598;2022-10-22T13:49:19;20.50;72.60
4406;DHT22;2216;53.806;11.598;2022-10-22T13:51:47;20.50;72.70
4406;DHT22;2216;53.806;11.598;2022-10-22T13:54:18;20.50;72.90
4406;DHT22;2216;53.806;11.598;2022-10-22T13:56:45;20.50;73.10
4406;DHT22;2216;53.806;11.598;2022-10-22T13:59:11;20.50;73.30
4406;DHT22;2216;53.806;11.598;2022-10-22T14:01:37;20.50;73.30
4406;DHT22;2216;53.806;11.598;2022-10-22T14:04:05;20.60;73.40
4406;DHT22;2216;53.806;11.598;2022-10-22T14:06:32;20.60;73.50
4406;DHT22;2216;53.806;11.598;2022-10-22T14:09:05;20.60;73.40
4406;DHT22;2216;53.806;11.598;2022-10-22T14:11:33;20.60;73.30
4406;DHT22;2216;53.806;11.598;2022-10-22T14:13:59;20.60;73.20
4406;DHT22;2216;53.806;11.598;2022-10-22T14:16:30;20.60;73.10
4406;DHT22;2216;53.806;11.598;2022-10-22T14:18:57;20.60;73.00
4406;DHT22;2216;53.806;11.598;2022-10-22T14:21:23;20.60;72.90
4406;DHT22;2216;53.806;11.598;2022-10-22T14:23:49;20.50;72.70
4406;DHT22;2216;53.806;11.598;2022-10-22T14:26:25;20.50;72.70
4406;DHT22;2216;53.806;11.598;2022-10-22T14:28:54;20.40;72.60
4406;DHT22;2216;53.806;11.598;2022-10-22T14:31:20;20.40;72.60
4406;DHT22;2216;53.806;11.598;2022-10-22T14:33:46;20.30;72.40
4406;DHT22;2216;53.806;11.598;2022-10-22T14:36:13;20.20;72.30
4406;DHT22;2216;53.806;11.598;2022-10-22T14:38:41;20.10;72.30
4406;DHT22;2216;53.806;11.598;2022-10-22T14:41:21;20.00;72.30
4406;DHT22;2216;53.806;11.598;2022-10-22T14:43:49;20.00;72.20
4406;DHT22;2216;53.806;11.598;2022-10-22T14:46:16;19.90;72.20
4406;DHT22;2216;53.806;11.598;2022-10-22T14:48:42;19.80;72.20
4406;DHT22;2216;53.806;11.598;2022-10-22T14:51:13;19.80;72.30
4406;DHT22;2216;53.806;11.598;2022-10-22T14:53:40;19.70;72.30
4406;DHT22;2216;53.806;11.598;2022-10-22T14:56:06;19.60;72.30
4406;DHT22;2216;53.806;11.598;2022-10-22T14:58:34;19.50;72.30
4406;DHT22;2216;53.806;11.598;2022-10-22T15:01:01;19.40;72.30
4406;DHT22;2216;53.806;11.598;2022-10-22T15:03:28;19.40;72.30
4406;DHT22;2216;53.806;11.598;2022-10-22T15:05:53;19.30;72.40
4406;DHT22;2216;53.806;11.598;2022-10-22T15:08:20;19.30;72.40
4406;DHT22;2216;53.806;11.598;2022-10-22T15:10:56;19.20;72.40
4406;DHT22;2216;53.806;11.598;2022-10-22T15:13:27;19.10;72.40
4406;DHT22;2216;53.806;11.598;2022-10-22T15:15:54;19.10;72.50
4406;DHT22;2216;53.806;11.598;2022-10-22T15:18:21;19.00;72.50
4406;DHT22;2216;53.806;11.598;2022-10-22T15:20:57;18.90;72.50
4406;DHT22;2216;53.806;11.598;2022-10-22T15:23:25;18.90;72.60
4406;DHT22;2216;53.806;11.598;2022-10-22T15:25:50;18.90;72.60
4406;DHT22;2216;53.806;11.598;2022-10-22T15:28:16;18.80;72.60
4406;DHT22;2216;53.806;11.598;2022-10-22T15:30:42;18.70;72.60
4406;DHT22;2216;53.806;11.598;2022-10-22T15:33:07;18.70;72.60
4406;DHT22;2216;53.806;11.598;2022-10-22T15:35:33;18.60;72.50
4406;DHT22;2216;53.806;11.598;2022-10-22T15:37:59;18.60;72.50
4406;DHT22;2216;53.806;11.598;2022-10-22T15:40:25;18.50;72.50
4406;DHT22;2216;53.806;11.598;2022-10-22T15:42:50;18.50;72.60
4406;DHT22;2216;53.806;11.598;2022-10-22T15:45:16;18.40;72.50
4406;DHT22;2216;53.806;11.598;2022-10-22T15:47:46;18.40;72.60
4406;DHT22;2216;53.806;11.598;2022-10-22T15:50:12;18.40;72.60
4406;DHT22;2216;53.806;11.598;2022-10-22T15:52:37;18.30;72.60
4406;DHT22;2216;53.806;11.598;2022-10-22T15:55:03;18.30;72.70
4406;DHT22;2216;53.806;11.598;2022-10-22T15:57:31;18.20;73.00
4406;DHT22;2216;53.806;11.598;2022-10-22T15:59:57;18.20;72.60
4406;DHT22;2216;53.806;11.598;2022-10-22T16:02:23;18.10;72.60
4406;DHT22;2216;53.806;11.598;2022-10-22T16:04:49;18.10;72.70
4406;DHT22;2216;53.806;11.598;2022-10-22T16:07:15;18.10;72.70
4406;DHT22;2216;53.806;11.598;2022-10-22T16:09:41;18.00;72.60
4406;DHT22;2216;53.806;11.598;2022-10-22T16:12:06;17.90;72.60
4406;DHT22;2216;53.806;11.598;2022-10-22T16:14:32;17.90;72.60
4406;DHT22;2216;53.806;11.598;2022-10-22T16:16:57;17.90;72.60
4406;DHT22;2216;53.806;11.598;2022-10-22T16:19:24;17.80;72.60
4406;DHT22;2216;53.806;11.598;2022-10-22T16:21:52;17.80;72.70
4406;DHT22;2216;53.806;11.598;2022-10-22T16:24:20;17.70;72.60
4406;DHT22;2216;53.806;11.598;2022-10-22T16:26:47;17.70;72.60
4406;DHT22;2216;53.806;11.598;2022-10-22T16:29:13;17.60;72.60
4406;DHT22;2216;53.806;11.598;2022-10-22T16:31:40;17.60;72.60
4406;DHT22;2216;53.806;11.598;2022-10-22T16:34:07;17.60;72.60
4406;DHT22;2216;53.806;11.598;2022-10-22T16:36:33;17.50;72.60
4406;DHT22;2216;53.806;11.598;2022-10-22T16:39:00;17.50;72.60
4406;DHT22;2216;53.806;11.598;2022-10-22T16:41:26;17.40;72.60
4406;DHT22;2216;53.806;11.598;2022-10-22T16:44:00;17.40;72.60
4406;DHT22;2216;53.806;11.598;2022-10-22T16:46:28;17.30;72.60
4406;DHT22;2216;53.806;11.598;2022-10-22T16:48:54;17.30;72.50
4406;DHT22;2216;53.806;11.598;2022-10-22T16:51:22;17.20;72.50
4406;DHT22;2216;53.806;11.598;2022-10-22T16:53:51;17.20;72.60
4406;DHT22;2216;53.806;11.598;2022-10-22T16:56:17;17.10;72.50
4406;DHT22;2216;53.806;11.598;2022-10-22T16:58:46;17.00;72.50
4406;DHT22;2216;53.806;11.598;2022-10-22T17:01:16;17.00;72.60
4406;DHT22;2216;53.806;11.598;2022-10-22T17:03:43;16.90;72.60
4406;DHT22;2216;53.806;11.598;2022-10-22T17:06:09;16.90;72.60
4406;DHT22;2216;53.806;11.598;2022-10-22T17:08:37;16.80;72.60
4406;DHT22;2216;53.806;11.598;2022-10-22T17:11:15;16.80;72.60
4406;DHT22;2216;53.806;11.598;2022-10-22T17:13:44;16.70;72.60
4406;DHT22;2216;53.806;11.598;2022-10-22T17:16:12;16.70;72.70
4406;DHT22;2216;53.806;11.598;2022-10-22T17:18:40;16.70;72.70
4406;DHT22;2216;53.806;11.598;2022-10-22T17:21:09;16.60;72.80
4406;DHT22;2216;53.806;11.598;2022-10-22T17:23:35;16.60;72.80
4406;DHT22;2216;53.806;11.598;2022-10-22T17:26:03;16.60;72.90
4406;DHT22;2216;53.806;11.598;2022-10-22T17:28:34;16.50;72.80
4406;DHT22;2216;53.806;11.598;2022-10-22T17:33:32;16.40;72.80
4406;DHT22;2216;53.806;11.598;2022-10-22T17:35:59;16.40;72.90
4406;DHT22;2216;53.806;11.598;2022-10-22T17:38:25;16.40;73.00
4406;DHT22;2216;53.806;11.598;2022-10-22T17:40:51;16.50;73.10
4406;DHT22;2216;53.806;11.598;2022-10-22T17:43:17;16.40;73.10
4406;DHT22;2216;53.806;11.598;2022-10-22T17:45:42;16.30;73.00
4406;DHT22;2216;53.806;11.598;2022-10-22T17:48:08;16.30;73.00
4406;DHT22;2216;53.806;11.598;2022-10-22T17:50:34;16.30;73.00
4406;DHT22;2216;53.806;11.598;2022-10-22T17:53:04;16.30;73.00
4406;DHT22;2216;53.806;11.598;2022-10-22T17:55:30;16.30;73.10
4406;DHT22;2216;53.806;11.598;2022-10-22T17:57:55;16.20;73.00